Terminal Aerodrome Forecast
Issued by NWS

Home | Current Version | Previous Version | Text Only | Print | Product List | Glossary On
Versions: 1 2 3 4 5 6 7 8 9 10 11 12 13 14 15 16 17 18 19
000
FTUS43 KDTX 271120
TAFDET
TAF
KDET 271120Z 2712/2812 23009KT P6SM FEW070
     FM271600 23016G25KT P6SM SCT060
     FM280000 20006KT P6SM BKN100
     FM280300 VRB04KT P6SM OVC100=

USA.gov is the U.S. government's official web portal to all federal, state and local government web resources and services.